createdAt,value
2023-05-05T00:01:45.980Z,102136.66
2023-05-05T00:07:06.486Z,102128.94
2023-05-05T00:12:26.944Z,102130.63
2023-05-05T00:17:48.072Z,102118.72
2023-05-05T00:23:08.784Z,102121.31
2023-05-05T00:28:30.000Z,102114.47
2023-05-05T00:33:51.380Z,102100.81
2023-05-05T00:39:11.758Z,102093.97
2023-05-05T00:44:39.123Z,102098.25
2023-05-05T00:49:59.738Z,102094.00
2023-05-05T00:55:20.506Z,102074.31
2023-05-05T01:00:41.131Z,102075.19
2023-05-05T01:06:35.020Z,102061.53
2023-05-05T01:12:27.311Z,102056.41
2023-05-05T01:18:06.540Z,102051.25
2023-05-05T01:23:47.735Z,102053.78
2023-05-05T01:29:57.461Z,102043.53
2023-05-05T01:35:19.849Z,102056.31
2023-05-05T01:40:48.794Z,102052.06
2023-05-05T01:46:11.611Z,102041.81
2023-05-05T01:51:34.140Z,102039.25
2023-05-05T01:56:58.496Z,102037.50
2023-05-05T02:02:21.452Z,102057.16
2023-05-05T02:07:42.139Z,102057.16
2023-05-05T02:13:04.384Z,102031.53
2023-05-05T02:18:27.005Z,102030.66
2023-05-05T02:23:52.031Z,102020.41
2023-05-05T02:29:38.694Z,102011.84
2023-05-05T02:35:22.751Z,102001.59
2023-05-05T02:40:45.744Z,102004.94
2023-05-05T02:46:09.381Z,102004.97
2023-05-05T02:51:33.053Z,101992.16
2023-05-05T02:56:59.385Z,101988.72
2023-05-05T03:02:27.748Z,101987.91
2023-05-05T03:07:56.225Z,101987.84
2023-05-05T03:13:22.314Z,101975.03
2023-05-05T03:18:45.500Z,101986.91
2023-05-05T03:24:15.405Z,101974.91
2023-05-05T03:29:38.108Z,101971.47
2023-05-05T03:35:02.730Z,101959.53
2023-05-05T03:40:36.230Z,101956.09
2023-05-05T03:46:01.943Z,101981.66
2023-05-05T03:51:24.201Z,101967.16
2023-05-05T03:56:45.710Z,101980.78
2023-05-05T04:02:06.272Z,101953.50
2023-05-05T04:07:27.081Z,101955.22
2023-05-05T04:12:48.043Z,101978.22
2023-05-05T04:18:08.645Z,101963.75
2023-05-05T04:23:29.228Z,101980.75
2023-05-05T04:28:49.714Z,101970.53
2023-05-05T04:34:12.001Z,101964.53
2023-05-05T04:39:32.774Z,101955.19
2023-05-05T04:44:54.137Z,101962.03
2023-05-05T04:50:16.566Z,101944.97
2023-05-05T04:55:37.205Z,101968.84
2023-05-05T05:00:58.147Z,101964.56
2023-05-05T05:06:18.984Z,101961.16
2023-05-05T05:11:39.600Z,101956.91
2023-05-05T05:17:00.361Z,101964.50
2023-05-05T05:22:21.198Z,101970.50
2023-05-05T05:27:41.833Z,101969.59
2023-05-05T05:33:04.022Z,101972.09
2023-05-05T05:38:25.342Z,101974.69
2023-05-05T05:43:49.224Z,101961.09
2023-05-05T05:49:10.039Z,101940.69
2023-05-05T05:54:32.640Z,101934.00
2023-05-05T05:59:53.946Z,101936.66
2023-05-05T06:05:15.699Z,101940.97
2023-05-05T06:10:38.597Z,101942.75
2023-05-05T06:16:04.238Z,101959.00
2023-05-05T06:21:24.828Z,101954.75
2023-05-05T06:26:46.123Z,101976.13
2023-05-05T06:32:08.672Z,101970.13
2023-05-05T06:37:29.520Z,101962.47
2023-05-05T06:42:50.229Z,101977.06
2023-05-05T06:48:16.374Z,102006.19
2023-05-05T06:53:36.811Z,101985.78
2023-05-05T06:58:57.565Z,102025.13
2023-05-05T07:04:18.561Z,102025.13
2023-05-05T07:09:39.101Z,102028.53
2023-05-05T07:15:00.737Z,102013.19
2023-05-05T07:20:23.643Z,102015.72
2023-05-05T07:25:44.180Z,102024.28
2023-05-05T07:31:05.148Z,102006.34
2023-05-05T07:36:27.782Z,102015.78
2023-05-05T07:41:48.498Z,102018.34
2023-05-05T07:47:09.132Z,102039.75
2023-05-05T07:52:44.312Z,102009.78
2023-05-05T07:58:07.007Z,101997.69
2023-05-05T08:03:27.900Z,102000.16
2023-05-05T08:08:49.211Z,102013.84
2023-05-05T08:14:09.691Z,102024.16
2023-05-05T08:19:30.415Z,101998.47
2023-05-05T08:24:51.864Z,102007.88
2023-05-05T08:30:13.206Z,102008.72
2023-05-05T08:35:34.257Z,102006.97
2023-05-05T08:40:54.737Z,102004.41
2023-05-05T08:46:16.891Z,102012.06
2023-05-05T08:51:42.783Z,102027.31
2023-05-05T08:57:06.249Z,102022.06
2023-05-05T09:02:30.009Z,102018.59
2023-05-05T09:07:51.553Z,102019.19
2023-05-05T09:13:13.113Z,102020.47
2023-05-05T09:18:37.101Z,101997.56
2023-05-05T09:24:09.091Z,101990.41
2023-05-05T09:29:30.056Z,101986.78
2023-05-05T09:35:01.308Z,101983.97
2023-05-05T09:40:22.127Z,101986.44
2023-05-05T09:45:43.363Z,101993.69
2023-05-05T09:51:03.823Z,101960.59
2023-05-05T09:56:37.979Z,101958.41
2023-05-05T10:02:12.944Z,101970.75
2023-05-05T10:07:33.779Z,101951.25
2023-05-05T10:12:54.555Z,101949.66
2023-05-05T10:18:17.748Z,101954.06
2023-05-05T10:23:45.779Z,101964.47
2023-05-05T10:29:13.627Z,101968.06
2023-05-05T10:35:03.033Z,101949.31
2023-05-05T10:40:24.985Z,101923.69
2023-05-05T10:45:46.328Z,101939.09
2023-05-05T10:51:40.506Z,101927.84
2023-05-05T10:57:02.690Z,101933.72
2023-05-05T11:02:30.451Z,101931.94
2023-05-05T11:07:51.678Z,101926.69
2023-05-05T11:13:12.512Z,101936.00
2023-05-05T11:18:40.684Z,101936.03
2023-05-05T11:24:31.191Z,101928.44
2023-05-05T11:30:03.989Z,101922.47
2023-05-05T11:35:54.287Z,101931.13
2023-05-05T11:41:32.482Z,101931.84
2023-05-05T11:46:52.701Z,101932.41
2023-05-05T11:52:14.642Z,101934.06
2023-05-05T11:57:35.261Z,101952.03
2023-05-05T12:02:57.023Z,101951.03
2023-05-05T12:08:19.094Z,101943.44
2023-05-05T12:13:39.553Z,101926.63
2023-05-05T12:19:05.892Z,101929.84
2023-05-05T12:24:26.956Z,101937.41
2023-05-05T12:29:47.459Z,101944.16
2023-05-05T12:35:09.567Z,101934.44
2023-05-05T12:40:43.744Z,101927.53
2023-05-05T12:46:07.257Z,101917.00
2023-05-05T12:51:28.145Z,101918.22
2023-05-05T12:56:48.724Z,101931.31
2023-05-05T13:02:09.255Z,101936.50
2023-05-05T13:07:29.623Z,101947.69
2023-05-05T13:12:50.197Z,101938.38
2023-05-05T13:18:11.028Z,101957.25
2023-05-05T13:23:31.465Z,101959.88
2023-05-05T13:28:52.111Z,101961.66
2023-05-05T13:34:12.387Z,101948.94
2023-05-05T13:39:32.854Z,101975.50
2023-05-05T13:44:53.654Z,101953.31
2023-05-05T13:50:14.290Z,101961.06
2023-05-05T13:55:35.026Z,101954.22
2023-05-05T14:00:56.180Z,101933.72
2023-05-05T14:06:16.578Z,101933.69
2023-05-05T14:11:37.143Z,101930.28
2023-05-05T14:16:57.923Z,101938.81
2023-05-05T14:22:18.466Z,101931.13
2023-05-05T14:27:39.578Z,101913.19
2023-05-05T14:33:01.361Z,101924.28
2023-05-05T14:38:22.591Z,101918.28
2023-05-05T14:43:43.095Z,101919.13
2023-05-05T14:49:03.511Z,101931.94
2023-05-05T14:54:28.670Z,101936.19
2023-05-05T14:59:52.157Z,101931.06
2023-05-05T15:05:13.396Z,101925.09
2023-05-05T15:10:33.727Z,101896.09
2023-05-05T15:15:54.535Z,101918.28
2023-05-05T15:21:15.315Z,101899.50
2023-05-05T15:26:37.091Z,101903.75
2023-05-05T15:31:58.081Z,101919.16
2023-05-05T15:37:18.733Z,101912.28
2023-05-05T15:42:39.500Z,101899.44
2023-05-05T15:48:00.664Z,101905.41
2023-05-05T15:53:20.900Z,101891.72
2023-05-05T15:58:41.643Z,101902.00
2023-05-05T16:04:03.531Z,101873.91
2023-05-05T16:09:24.215Z,101886.69
2023-05-05T16:14:45.113Z,101896.06
2023-05-05T16:20:06.602Z,101912.25
2023-05-05T16:25:27.270Z,101906.25
2023-05-05T16:30:47.957Z,101912.22
2023-05-05T16:36:12.526Z,101916.47
2023-05-05T16:41:33.157Z,101896.81
2023-05-05T16:46:53.722Z,101902.69
2023-05-05T16:52:14.485Z,101902.59
2023-05-05T16:57:35.253Z,101920.47
2023-05-05T17:02:55.928Z,101912.75
2023-05-05T17:08:16.202Z,101903.38
2023-05-05T17:13:37.065Z,101902.50
2023-05-05T17:18:57.490Z,101889.72
2023-05-05T17:24:18.186Z,101893.94
2023-05-05T17:29:40.914Z,101894.72
2023-05-05T17:35:01.886Z,101907.41
2023-05-05T17:40:22.702Z,101913.28
2023-05-05T17:45:43.268Z,101899.56
2023-05-05T17:51:03.689Z,101908.00
2023-05-05T17:56:24.241Z,101907.97
2023-05-05T18:01:45.265Z,101913.97
2023-05-05T18:07:05.962Z,101909.69
2023-05-05T18:12:26.865Z,101895.19
2023-05-05T18:17:47.453Z,101923.25
2023-05-05T18:23:07.997Z,101914.66
2023-05-05T18:28:28.563Z,101918.03
2023-05-05T18:33:49.044Z,101931.63
2023-05-05T18:39:10.261Z,101940.94
2023-05-05T18:44:32.778Z,101932.41
2023-05-05T18:49:53.472Z,101931.50
2023-05-05T18:55:14.264Z,101937.38
2023-05-05T19:00:38.052Z,101927.03
2023-05-05T19:05:58.573Z,101938.84
2023-05-05T19:11:19.449Z,101937.00
2023-05-05T19:16:40.306Z,101936.94
2023-05-05T19:22:03.073Z,101937.72
2023-05-05T19:27:25.246Z,101944.47
2023-05-05T19:32:45.943Z,101941.81
2023-05-05T19:38:09.759Z,101943.41
2023-05-05T19:43:32.457Z,101947.56
2023-05-05T19:48:53.253Z,101945.75
2023-05-05T19:54:14.138Z,101945.59
2023-05-05T19:59:34.960Z,101939.63
2023-05-05T20:04:55.314Z,101929.31
2023-05-05T20:10:16.632Z,101947.97
2023-05-05T20:15:37.163Z,101944.53
2023-05-05T20:21:01.262Z,101924.91
2023-05-05T20:26:22.012Z,101940.13
2023-05-05T20:31:42.800Z,101928.06
2023-05-05T20:37:03.124Z,101938.97
2023-05-05T20:42:25.466Z,101938.06
2023-05-05T20:47:46.108Z,101928.69
2023-05-05T20:53:11.368Z,101914.16
2023-05-05T20:58:32.128Z,101927.69
2023-05-05T21:03:52.950Z,101909.81
2023-05-05T21:09:13.615Z,101913.97
2023-05-05T21:14:34.252Z,101913.88
2023-05-05T21:19:55.924Z,101905.31
2023-05-05T21:25:19.541Z,101899.28
2023-05-05T21:30:40.737Z,101901.75
2023-05-05T21:36:01.637Z,101894.03
2023-05-05T21:41:23.227Z,101889.75
2023-05-05T21:46:43.997Z,101902.44
2023-05-05T21:52:04.363Z,101900.72
2023-05-05T21:57:25.356Z,101894.66
2023-05-05T22:02:45.566Z,101903.13
2023-05-05T22:08:05.995Z,101895.47
2023-05-05T22:13:26.336Z,101904.75
2023-05-05T22:18:47.078Z,101902.19
2023-05-05T22:24:07.559Z,101898.69
2023-05-05T22:29:28.043Z,101892.75
2023-05-05T22:34:48.418Z,101892.69
2023-05-05T22:40:10.008Z,101893.50
2023-05-05T22:45:30.800Z,101890.06
2023-05-05T22:50:51.531Z,101885.00
2023-05-05T22:56:12.034Z,101879.91
2023-05-05T23:01:33.401Z,101883.31
2023-05-05T23:06:54.111Z,101879.06
2023-05-05T23:12:14.826Z,101887.53
2023-05-05T23:17:35.496Z,101887.50
2023-05-05T23:22:56.142Z,101872.19
2023-05-05T23:28:17.035Z,101872.19
2023-05-05T23:33:37.650Z,101871.38
2023-05-05T23:38:58.306Z,101886.63
2023-05-05T23:44:19.074Z,101873.91
2023-05-05T23:49:39.872Z,101888.34
2023-05-05T23:55:00.676Z,101896.81
